Time;durP1;ratioP1;P1;durP2;ratioP2;P2;SDS_P1;SDS_P2;PMS_P1;PMS_P2;Temp;Humidity;BMP_temperature;BMP_pressure;BME280_temperature;BME280_humidity;BME280_pressure;Samples;Min_cycle;Max_cycle;Signal;HPM_P1;HPM_P2
2021/05/31 00:02:21;;;;;;;;;;;;;;;;;;5032735;28;20309;-67
2021/05/31 00:04:48;;;;;;;;;;;;;;;;;;5032944;28;20385;-68
2021/05/31 00:07:14;;;;;;;;;;;;;;;;;;5032607;28;19925;-67
2021/05/31 00:09:41;;;;;;;;;;;;;;;;;;5031967;28;20377;-69
2021/05/31 00:12:08;;;;;;;;;;;;;;;;;;5032501;28;20054;-67
2021/05/31 00:14:34;;;;;;;;;;;;;;;;;;5034918;28;19925;-68
2021/05/31 00:17:00;;;;;;;;;;;;;;;;;;5039715;28;19931;-67
2021/05/31 00:19:27;;;;;;;;;;;;;;;;;;5032105;28;19931;-68
2021/05/31 00:21:53;;;;;;;;;;;;;;;;;;5030980;28;19925;-68
2021/05/31 00:24:20;;;;;;;;;;;;;;;;;;5052514;28;19932;-68
2021/05/31 00:26:46;;;;;;;;;;;;;;;;;;5033005;28;19932;-67
2021/05/31 00:29:13;;;;;;;;;;;;;;;;;;5021817;28;20392;-67
2021/05/31 00:31:39;;;;;;;;;;;;;;;;;;5012578;28;19929;-67
2021/05/31 00:34:06;;;;;;;;;;;;;;;;;;5012662;28;19973;-67
2021/05/31 00:36:35;;;;;;;;;;;;;;;;;;5019364;28;20399;-67
2021/05/31 00:39:02;;;;;;;;;;;;;;;;;;5032003;28;20011;-68
2021/05/31 00:41:28;;;;;;;;;;;;;;;;;;5031880;28;19925;-67
2021/05/31 00:43:56;;;;;;;;;;;;;;;;;;5032118;28;19952;-69
2021/05/31 00:46:22;;;;;;;;;;;;;;;;;;5028945;28;19996;-68
2021/05/31 00:48:48;;;;;;;;;;;;;;;;;;5031951;28;19983;-67
2021/05/31 00:51:15;;;;;;;;;;;;;;;;;;5031588;28;19925;-67
2021/05/31 00:53:41;;;;;;;;;;;;;;;;;;5032080;28;19951;-66
2021/05/31 00:56:08;;;;;;;;;;;;;;;;;;5014977;28;19926;-67
2021/05/31 00:58:36;;;;;;;;;;;;;;;;;;5029930;28;20404;-67
2021/05/31 01:01:02;;;;;;;;;;;;;;;;;;5031255;28;19929;-68
2021/05/31 01:03:29;;;;;;;;;;;;;;;;;;5031524;28;19925;-69
2021/05/31 01:05:56;;;;;;;;;;;;;;;;;;5031803;28;20019;-67
2021/05/31 01:08:23;;;;;;;;;;;;;;;;;;5031531;28;20385;-67
2021/05/31 01:10:49;;;;;;;;;;;;;;;;;;5031251;28;19979;-67
2021/05/31 01:13:15;;;;;;;;;;;;;;;;;;5025148;28;19983;-67
2021/05/31 01:15:42;;;;;;;;;;;;;;;;;;5011790;28;19930;-67
2021/05/31 01:18:08;;;;;;;;;;;;;;;;;;5011654;28;19936;-68
2021/05/31 01:20:35;;;;;;;;;;;;;;;;;;5019944;28;19925;-69
2021/05/31 01:23:01;;;;;;;;;;;;;;;;;;5031783;28;19935;-69
2021/05/31 01:25:28;;;;;;;;;;;;;;;;;;5030853;28;20022;-66
2021/05/31 01:27:54;;;;;;;;;;;;;;;;;;5031275;28;19932;-68
2021/05/31 01:30:23;;;;;;;;;;;;;;;;;;5031121;28;19925;-69
2021/05/31 01:32:49;;;;;;;;;;;;;;;;;;5027400;28;19926;-69
2021/05/31 01:35:16;;;;;;;;;;;;;;;;;;5014005;28;19926;-68
2021/05/31 01:37:42;;;;;;;;;;;;;;;;;;5033403;28;20071;-68
2021/05/31 01:40:08;;;;;;;;;;;;;;;;;;5033976;28;19947;-68
2021/05/31 01:42:35;;;;;;;;;;;;;;;;;;5016212;28;19948;-68
2021/05/31 01:45:01;;;;;;;;;;;;;;;;;;5015587;28;19935;-67
2021/05/31 01:47:28;;;;;;;;;;;;;;;;;;5022753;28;19925;-67
2021/05/31 01:49:54;;;;;;;;;;;;;;;;;;5033209;28;19932;-70
2021/05/31 01:52:21;;;;;;;;;;;;;;;;;;5029258;28;19925;-68
2021/05/31 01:54:47;;;;;;;;;;;;;;;;;;5035343;28;19925;-68
2021/05/31 01:57:13;;;;;;;;;;;;;;;;;;5035145;28;19926;-68
2021/05/31 01:59:40;;;;;;;;;;;;;;;;;;5039611;28;19947;-68
2021/05/31 02:02:06;;;;;;;;;;;;;;;;;;5026925;28;19948;-68
2021/05/31 02:04:33;;;;;;;;;;;;;;;;;;5042611;28;20402;-68
2021/05/31 02:06:59;;;;;;;;;;;;;;;;;;5040241;28;20286;-67
2021/05/31 02:09:26;;;;;;;;;;;;;;;;;;5034123;28;19932;-67
2021/05/31 02:11:52;;;;;;;;;;;;;;;;;;5017765;28;19925;-68
2021/05/31 02:14:18;;;;;;;;;;;;;;;;;;5022255;28;19929;-67
2021/05/31 02:16:45;;;;;;;;;;;;;;;;;;5033013;28;19932;-68
2021/05/31 02:19:11;;;;;;;;;;;;;;;;;;5015171;28;20286;-67
2021/05/31 02:21:38;;;;;;;;;;;;;;;;;;5021294;28;19925;-67
2021/05/31 02:24:04;;;;;;;;;;;;;;;;;;5033789;28;19929;-69
2021/05/31 02:26:32;;;;;;;;;;;;;;;;;;5035244;28;19925;-69
2021/05/31 02:28:59;;;;;;;;;;;;;;;;;;5035675;28;19925;-67
2021/05/31 02:31:25;;;;;;;;;;;;;;;;;;5034629;28;19932;-68
2021/05/31 02:33:51;;;;;;;;;;;;;;;;;;5034557;28;19929;-67
2021/05/31 02:36:18;;;;;;;;;;;;;;;;;;5034303;28;19932;-67
2021/05/31 02:38:44;;;;;;;;;;;;;;;;;;5034177;28;19929;-68
2021/05/31 02:41:11;;;;;;;;;;;;;;;;;;5033134;28;19931;-68
2021/05/31 02:43:37;;;;;;;;;;;;;;;;;;5016537;28;19932;-67
2021/05/31 02:46:04;;;;;;;;;;;;;;;;;;5032987;28;19925;-67
2021/05/31 02:48:30;;;;;;;;;;;;;;;;;;5033383;28;19925;-67
2021/05/31 02:50:56;;;;;;;;;;;;;;;;;;5033817;28;19931;-67
2021/05/31 02:53:23;;;;;;;;;;;;;;;;;;5034240;28;19925;-67
2021/05/31 02:55:49;;;;;;;;;;;;;;;;;;5034267;28;19971;-68
2021/05/31 02:58:17;;;;;;;;;;;;;;;;;;5053105;22;19931;-66
2021/05/31 03:00:43;;;;;;;;;;;;;;;;;;5055467;28;19932;-68
2021/05/31 03:03:10;;;;;;;;;;;;;;;;;;5060700;28;19924;-68
2021/05/31 03:05:36;;;;;;;;;;;;;;;;;;5075733;28;19967;-67
2021/05/31 03:08:02;;;;;;;;;;;;;;;;;;5071949;28;19925;-68
2021/05/31 03:10:29;;;;;;;;;;;;;;;;;;5073778;28;19931;-67
2021/05/31 03:12:56;;;;;;;;;;;;;;;;;;5066995;28;19932;-67
2021/05/31 03:15:22;;;;;;;;;;;;;;;;;;5053813;28;19924;-67
2021/05/31 03:17:49;;;;;;;;;;;;;;;;;;5054683;28;20166;-68
2021/05/31 03:20:15;;;;;;;;;;;;;;;;;;5073622;28;19924;-68
2021/05/31 03:22:42;;;;;;;;;;;;;;;;;;5059013;28;19954;-67
2021/05/31 03:25:08;;;;;;;;;;;;;;;;;;5053959;28;19947;-67
2021/05/31 03:27:35;;;;;;;;;;;;;;;;;;5053704;28;19960;-67
2021/05/31 03:30:01;;;;;;;;;;;;;;;;;;5053004;28;19925;-68
2021/05/31 03:32:28;;;;;;;;;;;;;;;;;;5053207;28;20303;-68
2021/05/31 03:34:54;;;;;;;;;;;;;;;;;;5053312;28;19928;-68
2021/05/31 03:37:20;;;;;;;;;;;;;;;;;;5053953;28;19928;-69
2021/05/31 03:39:47;;;;;;;;;;;;;;;;;;5053373;28;19979;-68
2021/05/31 03:42:13;;;;;;;;;;;;;;;;;;5053545;28;20017;-68
2021/05/31 03:44:40;;;;;;;;;;;;;;;;;;5053202;28;19931;-68
2021/05/31 03:47:06;;;;;;;;;;;;;;;;;;5053100;28;20061;-68
2021/05/31 03:49:33;;;;;;;;;;;;;;;;;;5052401;28;19960;-68
2021/05/31 03:51:59;;;;;;;;;;;;;;;;;;5053478;28;20016;-68
2021/05/31 03:54:26;;;;;;;;;;;;;;;;;;5053316;28;19924;-68
2021/05/31 03:56:52;;;;;;;;;;;;;;;;;;5053085;28;19925;-68
2021/05/31 03:59:19;;;;;;;;;;;;;;;;;;5052588;28;20340;-68
2021/05/31 04:01:46;;;;;;;;;;;;;;;;;;5053193;28;19924;-68
2021/05/31 04:04:13;;;;;;;;;;;;;;;;;;5052999;28;20536;-68
2021/05/31 04:06:55;;;;;;;;;;;;;;;;;;5052547;28;20004;-68
2021/05/31 04:12:06;;;;;;;;;;;;;;;;;;5052871;28;19940;-68
2021/05/31 04:14:32;;;;;;;;;;;;;;;;;;5052658;28;19925;-68
2021/05/31 04:16:59;;;;;;;;;;;;;;;;;;5052579;28;20304;-68
2021/05/31 04:19:25;;;;;;;;;;;;;;;;;;5052962;28;19925;-68
2021/05/31 04:21:52;;;;;;;;;;;;;;;;;;5052962;28;20015;-68
2021/05/31 04:24:18;;;;;;;;;;;;;;;;;;5052807;28;19970;-67
2021/05/31 04:26:45;;;;;;;;;;;;;;;;;;5052607;28;19977;-68
2021/05/31 04:29:11;;;;;;;;;;;;;;;;;;5052106;28;19935;-68
2021/05/31 04:31:38;;;;;;;;;;;;;;;;;;5053233;28;19932;-69
2021/05/31 04:34:04;;;;;;;;;;;;;;;;;;5054750;28;20436;-68
2021/05/31 04:36:30;;;;;;;;;;;;;;;;;;5054780;28;20015;-69
2021/05/31 04:38:57;;;;;;;;;;;;;;;;;;5053201;28;19951;-68
2021/05/31 04:41:24;;;;;;;;;;;;;;;;;;5052224;28;20008;-69
2021/05/31 04:43:50;;;;;;;;;;;;;;;;;;5055324;28;19924;-68
2021/05/31 04:46:17;;;;;;;;;;;;;;;;;;5054234;28;20381;-68
2021/05/31 04:48:43;;;;;;;;;;;;;;;;;;5054074;28;20019;-68
2021/05/31 04:51:10;;;;;;;;;;;;;;;;;;5052754;28;19925;-68
2021/05/31 04:53:36;;;;;;;;;;;;;;;;;;5052207;28;20027;-67
2021/05/31 04:56:08;;;;;;;;;;;;;;;;;;5051839;28;19929;-67
2021/05/31 04:58:35;;;;;;;;;;;;;;;;;;5051563;28;19968;-67
2021/05/31 05:01:09;;;;;;;;;;;;;;;;;;5051779;28;20465;-67
2021/05/31 05:03:35;;;;;;;;;;;;;;;;;;5044096;28;20451;-64
2021/05/31 05:06:02;;;;;;;;;;;;;;;;;;5032992;28;20355;-65
2021/05/31 05:08:28;;;;;;;;;;;;;;;;;;5043656;28;19931;-64
2021/05/31 05:10:55;;;;;;;;;;;;;;;;;;5051817;28;19994;-64
2021/05/31 05:13:21;;;;;;;;;;;;;;;;;;5051778;28;20399;-64
2021/05/31 05:15:48;;;;;;;;;;;;;;;;;;5052066;28;19924;-64
2021/05/31 05:18:14;;;;;;;;;;;;;;;;;;5052032;28;20386;-65
2021/05/31 05:20:41;;;;;;;;;;;;;;;;;;5051425;28;19925;-65
2021/05/31 05:23:07;;;;;;;;;;;;;;;;;;5051529;28;19925;-65
2021/05/31 05:25:34;;;;;;;;;;;;;;;;;;5051551;28;19932;-63
2021/05/31 05:28:00;;;;;;;;;;;;;;;;;;5051162;28;19925;-64
2021/05/31 05:30:28;;;;;;;;;;;;;;;;;;5053548;28;19924;-65
2021/05/31 05:32:59;;;;;;;;;;;;;;;;;;5071018;28;19924;-65
2021/05/31 05:35:28;;;;;;;;;;;;;;;;;;5071641;28;20020;-64
2021/05/31 05:43:47;;;;;;;;;;;;;;;;;;5047286;28;19928;-65
2021/05/31 05:49:03;;;;;;;;;;;;;;;;;;5019515;28;19921;-66
2021/05/31 05:51:30;;;;;;;;;;;;;;;;;;5046331;28;19933;-66
2021/05/31 05:53:58;;;;;;;;;;;;;;;;;;5050891;28;19936;-66
2021/05/31 05:56:24;;;;;;;;;;;;;;;;;;5050814;28;19925;-66
2021/05/31 05:58:53;;;;;;;;;;;;;;;;;;5049800;28;19925;-66
2021/05/31 06:01:19;;;;;;;;;;;;;;;;;;5048886;28;19970;-66
2021/05/31 06:03:47;;;;;;;;;;;;;;;;;;5050814;28;19925;-66
2021/05/31 06:06:14;;;;;;;;;;;;;;;;;;5050805;28;19925;-66
2021/05/31 06:08:40;;;;;;;;;;;;;;;;;;5050780;28;20015;-66
2021/05/31 06:11:07;;;;;;;;;;;;;;;;;;5048582;28;19925;-66
2021/05/31 06:13:33;;;;;;;;;;;;;;;;;;5050593;28;20440;-66
2021/05/31 06:16:00;;;;;;;;;;;;;;;;;;5046779;28;19992;-66
2021/05/31 06:18:27;;;;;;;;;;;;;;;;;;5050364;28;19936;-66
2021/05/31 06:20:53;;;;;;;;;;;;;;;;;;5050329;28;20324;-66
2021/05/31 06:23:20;;;;;;;;;;;;;;;;;;5054270;28;19925;-67
2021/05/31 06:25:46;;;;;;;;;;;;;;;;;;5054142;28;19929;-66
2021/05/31 06:28:13;;;;;;;;;;;;;;;;;;5054715;28;19928;-66
2021/05/31 06:30:39;;;;;;;;;;;;;;;;;;5052874;28;20349;-66
2021/05/31 06:33:06;;;;;;;;;;;;;;;;;;5046087;28;20419;-66
2021/05/31 06:35:33;;;;;;;;;;;;;;;;;;5053131;28;19928;-65
2021/05/31 06:37:59;;;;;;;;;;;;;;;;;;5054284;28;20027;-66
2021/05/31 06:40:26;;;;;;;;;;;;;;;;;;5053826;28;19929;-66
2021/05/31 06:42:52;;;;;;;;;;;;;;;;;;5054429;28;20027;-66
2021/05/31 06:45:21;;;;;;;;;;;;;;;;;;5054892;28;20414;-66
2021/05/31 06:47:48;;;;;;;;;;;;;;;;;;5054233;28;19925;-66
2021/05/31 06:50:14;;;;;;;;;;;;;;;;;;5053777;28;20362;-66
2021/05/31 06:52:41;;;;;;;;;;;;;;;;;;5046931;28;19925;-66
2021/05/31 06:55:07;;;;;;;;;;;;;;;;;;5054641;28;19954;-66
2021/05/31 06:57:34;;;;;;;;;;;;;;;;;;5053756;28;19925;-66
2021/05/31 07:00:00;;;;;;;;;;;;;;;;;;5054212;28;19925;-66
2021/05/31 07:02:27;;;;;;;;;;;;;;;;;;5052600;28;19925;-65
2021/05/31 07:04:53;;;;;;;;;;;;;;;;;;5053669;28;19924;-65
2021/05/31 07:07:20;;;;;;;;;;;;;;;;;;5054230;28;19933;-65
2021/05/31 07:09:47;;;;;;;;;;;;;;;;;;5054515;28;19925;-65
2021/05/31 07:12:15;;;;;;;;;;;;;;;;;;5052913;28;19947;-65
2021/05/31 07:14:44;;;;;;;;;;;;;;;;;;5054242;28;19925;-65
2021/05/31 07:17:10;;;;;;;;;;;;;;;;;;5053975;28;19936;-65
2021/05/31 07:19:37;;;;;;;;;;;;;;;;;;5039438;28;19925;-65
2021/05/31 07:22:03;;;;;;;;;;;;;;;;;;5052870;28;19925;-65
2021/05/31 07:24:29;;;;;;;;;;;;;;;;;;5053045;28;19931;-65
2021/05/31 07:26:56;;;;;;;;;;;;;;;;;;5053658;28;20030;-65
2021/05/31 07:29:23;;;;;;;;;;;;;;;;;;5053285;28;19944;-65
2021/05/31 07:31:49;;;;;;;;;;;;;;;;;;5051109;28;19967;-65
2021/05/31 07:34:16;;;;;;;;;;;;;;;;;;5052566;28;19924;-65
2021/05/31 07:36:42;;;;;;;;;;;;;;;;;;5053281;28;19932;-65
2021/05/31 07:39:10;;;;;;;;;;;;;;;;;;5053350;28;19928;-65
2021/05/31 07:41:36;;;;;;;;;;;;;;;;;;5050905;28;20019;-65
2021/05/31 07:44:03;;;;;;;;;;;;;;;;;;5053211;28;19928;-65
2021/05/31 07:46:29;;;;;;;;;;;;;;;;;;5052512;28;19929;-65
2021/05/31 07:48:56;;;;;;;;;;;;;;;;;;5052940;28;19951;-65
2021/05/31 07:51:22;;;;;;;;;;;;;;;;;;5049673;28;19932;-65
2021/05/31 07:53:49;;;;;;;;;;;;;;;;;;5051697;28;19971;-65
2021/05/31 07:56:15;;;;;;;;;;;;;;;;;;5052291;28;19937;-64
2021/05/31 07:58:42;;;;;;;;;;;;;;;;;;5052598;28;20031;-65
2021/05/31 08:01:08;;;;;;;;;;;;;;;;;;5050651;28;19924;-65
2021/05/31 08:03:35;;;;;;;;;;;;;;;;;;5052471;28;19932;-65
2021/05/31 08:06:01;;;;;;;;;;;;;;;;;;5052565;28;20286;-66
2021/05/31 08:08:28;;;;;;;;;;;;;;;;;;5052988;28;19931;-65
2021/05/31 08:10:54;;;;;;;;;;;;;;;;;;5051145;28;19925;-66
2021/05/31 08:13:21;;;;;;;;;;;;;;;;;;5052096;28;20023;-66
2021/05/31 08:15:47;;;;;;;;;;;;;;;;;;5048072;28;20015;-65
2021/05/31 08:18:14;;;;;;;;;;;;;;;;;;5052151;28;20031;-66
2021/05/31 08:20:41;;;;;;;;;;;;;;;;;;5051132;28;19936;-65
2021/05/31 08:23:07;;;;;;;;;;;;;;;;;;5052382;28;20385;-66
2021/05/31 08:25:34;;;;;;;;;;;;;;;;;;5052129;28;20066;-65
2021/05/31 08:28:01;;;;;;;;;;;;;;;;;;5052371;28;19925;-66
2021/05/31 08:30:27;;;;;;;;;;;;;;;;;;5051630;28;19932;-66
2021/05/31 08:32:54;;;;;;;;;;;;;;;;;;5036263;28;19931;-66
2021/05/31 08:35:20;;;;;;;;;;;;;;;;;;5036316;28;19932;-66
2021/05/31 08:37:47;;;;;;;;;;;;;;;;;;5041378;28;19929;-66
2021/05/31 08:40:13;;;;;;;;;;;;;;;;;;5035161;28;19933;-66
2021/05/31 08:42:40;;;;;;;;;;;;;;;;;;5050255;28;20031;-66
2021/05/31 08:45:06;;;;;;;;;;;;;;;;;;5051512;28;19931;-66
2021/05/31 08:47:33;;;;;;;;;;;;;;;;;;5051845;28;19933;-65
2021/05/31 08:49:59;;;;;;;;;;;;;;;;;;5035798;28;20019;-65
2021/05/31 08:52:26;;;;;;;;;;;;;;;;;;5046739;28;20380;-65
2021/05/31 08:54:53;;;;;;;;;;;;;;;;;;5051093;28;19928;-65
2021/05/31 08:57:22;;;;;;;;;;;;;;;;;;5051730;28;20431;-66
2021/05/31 08:59:48;;;;;;;;;;;;;;;;;;5097598;22;19934;-66
2021/05/31 09:02:15;;;;;;;;;;;;;;;;;;5078887;28;19928;-65
2021/05/31 09:04:41;;;;;;;;;;;;;;;;;;5071545;28;19935;-65
2021/05/31 09:07:08;;;;;;;;;;;;;;;;;;5075458;28;19950;-67
2021/05/31 09:09:34;;;;;;;;;;;;;;;;;;5072201;28;19977;-66
2021/05/31 09:12:01;;;;;;;;;;;;;;;;;;5068408;28;19961;-66
2021/05/31 09:14:27;;;;;;;;;;;;;;;;;;5070643;28;19928;-66
2021/05/31 09:16:54;;;;;;;;;;;;;;;;;;5063212;28;20415;-67
2021/05/31 09:19:20;;;;;;;;;;;;;;;;;;5069635;28;19932;-67
2021/05/31 09:21:49;;;;;;;;;;;;;;;;;;5059597;28;19935;-66
2021/05/31 09:24:19;;;;;;;;;;;;;;;;;;5070697;28;20011;-66
2021/05/31 09:26:45;;;;;;;;;;;;;;;;;;5070196;28;20384;-67
2021/05/31 09:29:12;;;;;;;;;;;;;;;;;;5063389;28;19929;-67
2021/05/31 09:31:38;;;;;;;;;;;;;;;;;;5063284;28;19925;-67
2021/05/31 09:34:05;;;;;;;;;;;;;;;;;;5071059;28;19924;-66
2021/05/31 09:36:31;;;;;;;;;;;;;;;;;;5063534;28;20015;-67
2021/05/31 09:38:58;;;;;;;;;;;;;;;;;;5070993;28;19924;-67
2021/05/31 09:41:24;;;;;;;;;;;;;;;;;;5058142;28;19932;-66
2021/05/31 09:43:51;;;;;;;;;;;;;;;;;;5069762;28;19925;-68
2021/05/31 09:46:17;;;;;;;;;;;;;;;;;;5077125;28;19924;-67
2021/05/31 09:48:44;;;;;;;;;;;;;;;;;;5076820;28;20402;-66
2021/05/31 09:51:13;;;;;;;;;;;;;;;;;;5065167;28;19932;-66
2021/05/31 09:53:40;;;;;;;;;;;;;;;;;;5066602;28;20319;-66
2021/05/31 09:56:06;;;;;;;;;;;;;;;;;;5058032;28;19981;-66
2021/05/31 09:58:34;;;;;;;;;;;;;;;;;;5073700;28;19924;-65
2021/05/31 10:01:00;;;;;;;;;;;;;;;;;;5069762;28;20035;-65
2021/05/31 10:03:33;;;;;;;;;;;;;;;;;;5073837;28;19925;-65
2021/05/31 10:06:07;;;;;;;;;;;;;;;;;;5073649;28;19939;-65
2021/05/31 10:08:43;;;;;;;;;;;;;;;;;;5071729;28;19924;-66
2021/05/31 10:11:10;;;;;;;;;;;;;;;;;;5071454;28;19925;-66
2021/05/31 10:13:36;;;;;;;;;;;;;;;;;;5069968;28;19931;-65
2021/05/31 10:16:03;;;;;;;;;;;;;;;;;;5055088;28;19924;-65
2021/05/31 10:18:29;;;;;;;;;;;;;;;;;;5074175;28;19925;-64
2021/05/31 10:20:57;;;;;;;;;;;;;;;;;;5071755;28;20305;-65
2021/05/31 10:23:24;;;;;;;;;;;;;;;;;;5074056;28;19930;-65
2021/05/31 10:25:54;;;;;;;;;;;;;;;;;;5072668;28;19924;-65
2021/05/31 10:28:21;;;;;;;;;;;;;;;;;;5072474;28;19925;-64
2021/05/31 10:30:48;;;;;;;;;;;;;;;;;;5070866;28;19943;-66
2021/05/31 10:33:14;;;;;;;;;;;;;;;;;;5073698;28;20385;-68
2021/05/31 10:35:41;;;;;;;;;;;;;;;;;;5073157;28;19925;-68
2021/05/31 10:38:07;;;;;;;;;;;;;;;;;;5071673;28;20395;-67
2021/05/31 10:40:34;;;;;;;;;;;;;;;;;;5072247;28;19931;-66
2021/05/31 10:43:00;;;;;;;;;;;;;;;;;;5072450;28;19989;-67
2021/05/31 10:45:27;;;;;;;;;;;;;;;;;;5073225;28;19932;-67
2021/05/31 10:47:53;;;;;;;;;;;;;;;;;;5062358;28;19971;-68
2021/05/31 10:50:20;;;;;;;;;;;;;;;;;;5056798;28;20299;-68
2021/05/31 10:52:46;;;;;;;;;;;;;;;;;;5067716;28;19938;-67
2021/05/31 10:55:13;;;;;;;;;;;;;;;;;;5068168;28;20275;-68
2021/05/31 10:57:39;;;;;;;;;;;;;;;;;;5066591;28;19928;-68
2021/05/31 11:00:06;;;;;;;;;;;;;;;;;;5066262;28;20318;-67
2021/05/31 11:02:33;;;;;;;;;;;;;;;;;;5063749;28;19975;-69
2021/05/31 11:04:59;;;;;;;;;;;;;;;;;;5068142;28;19994;-70
2021/05/31 11:07:26;;;;;;;;;;;;;;;;;;5061330;28;19925;-69
2021/05/31 11:09:53;;;;;;;;;;;;;;;;;;5066883;28;20344;-69
2021/05/31 11:12:20;;;;;;;;;;;;;;;;;;5061621;28;19929;-70
2021/05/31 11:14:47;;;;;;;;;;;;;;;;;;5062293;28;19971;-69
2021/05/31 11:17:13;;;;;;;;;;;;;;;;;;5066962;28;19967;-72
2021/05/31 11:19:40;;;;;;;;;;;;;;;;;;5064839;28;20338;-68
2021/05/31 11:22:06;;;;;;;;;;;;;;;;;;5064790;28;19925;-68
2021/05/31 11:24:33;;;;;;;;;;;;;;;;;;5067435;28;19947;-67
2021/05/31 11:26:59;;;;;;;;;;;;;;;;;;5065749;28;19925;-68
2021/05/31 11:29:26;;;;;;;;;;;;;;;;;;5066587;28;20283;-68
2021/05/31 11:31:52;;;;;;;;;;;;;;;;;;5064322;28;20031;-67
2021/05/31 11:34:19;;;;;;;;;;;;;;;;;;5068129;28;20304;-67
2021/05/31 11:36:45;;;;;;;;;;;;;;;;;;5066486;28;19924;-67
2021/05/31 11:39:12;;;;;;;;;;;;;;;;;;5068262;28;20023;-69
2021/05/31 11:41:40;;;;;;;;;;;;;;;;;;5060645;28;19925;-68
2021/05/31 11:44:06;;;;;;;;;;;;;;;;;;5066156;28;20037;-68
2021/05/31 11:46:33;;;;;;;;;;;;;;;;;;5069480;28;19924;-69
2021/05/31 11:48:59;;;;;;;;;;;;;;;;;;5065080;28;19935;-68
2021/05/31 11:51:26;;;;;;;;;;;;;;;;;;5061984;28;19932;-68
2021/05/31 11:53:52;;;;;;;;;;;;;;;;;;5060456;28;19925;-68
2021/05/31 11:56:19;;;;;;;;;;;;;;;;;;5068355;28;19931;-67
2021/05/31 11:58:45;;;;;;;;;;;;;;;;;;5064659;28;19931;-67
2021/05/31 12:01:13;;;;;;;;;;;;;;;;;;5061629;28;19932;-67
2021/05/31 12:03:39;;;;;;;;;;;;;;;;;;5063337;28;19932;-67
2021/05/31 12:06:06;;;;;;;;;;;;;;;;;;5066284;28;19929;-67
2021/05/31 12:08:32;;;;;;;;;;;;;;;;;;5066679;28;19958;-67
2021/05/31 12:10:59;;;;;;;;;;;;;;;;;;5063439;28;20015;-67
2021/05/31 12:13:25;;;;;;;;;;;;;;;;;;5065475;28;20381;-70
2021/05/31 12:15:52;;;;;;;;;;;;;;;;;;5067495;28;19970;-69
2021/05/31 12:18:20;;;;;;;;;;;;;;;;;;5069743;28;19975;-69
2021/05/31 12:20:46;;;;;;;;;;;;;;;;;;5062834;28;19939;-69
2021/05/31 12:23:13;;;;;;;;;;;;;;;;;;5067121;28;20333;-68
2021/05/31 12:25:39;;;;;;;;;;;;;;;;;;5068288;28;19925;-69
2021/05/31 12:28:06;;;;;;;;;;;;;;;;;;5066811;28;20078;-69
2021/05/31 12:30:32;;;;;;;;;;;;;;;;;;5062975;28;19924;-72
2021/05/31 12:32:59;;;;;;;;;;;;;;;;;;5065575;28;19982;-69
2021/05/31 12:35:25;;;;;;;;;;;;;;;;;;5063488;28;19928;-69
2021/05/31 12:37:52;;;;;;;;;;;;;;;;;;5064732;28;20342;-68
2021/05/31 12:40:19;;;;;;;;;;;;;;;;;;5065592;28;19951;-69
2021/05/31 12:42:45;;;;;;;;;;;;;;;;;;5059435;28;19931;-69
2021/05/31 12:45:12;;;;;;;;;;;;;;;;;;5066495;28;19987;-70
2021/05/31 12:47:38;;;;;;;;;;;;;;;;;;5061373;28;19925;-68
2021/05/31 12:50:05;;;;;;;;;;;;;;;;;;5063956;28;19929;-69
2021/05/31 12:52:31;;;;;;;;;;;;;;;;;;5061630;28;19928;-69
2021/05/31 12:54:58;;;;;;;;;;;;;;;;;;5066249;28;20011;-69
2021/05/31 12:57:24;;;;;;;;;;;;;;;;;;5065672;28;20406;-71
2021/05/31 12:59:51;;;;;;;;;;;;;;;;;;5063113;28;19928;-70
2021/05/31 13:02:17;;;;;;;;;;;;;;;;;;5063275;28;20411;-71
2021/05/31 13:04:44;;;;;;;;;;;;;;;;;;5066239;28;20367;-69
2021/05/31 13:07:10;;;;;;;;;;;;;;;;;;5062115;28;19928;-69
2021/05/31 13:09:37;;;;;;;;;;;;;;;;;;5066188;28;19932;-72
2021/05/31 13:12:05;;;;;;;;;;;;;;;;;;5056738;28;19925;-67
2021/05/31 13:14:32;;;;;;;;;;;;;;;;;;5063782;28;20015;-70
2021/05/31 13:17:00;;;;;;;;;;;;;;;;;;5061575;28;19925;-71
2021/05/31 13:19:26;;;;;;;;;;;;;;;;;;5064927;28;19930;-71
2021/05/31 13:21:55;;;;;;;;;;;;;;;;;;5062313;28;19925;-68
2021/05/31 13:24:21;;;;;;;;;;;;;;;;;;5062661;28;19933;-68
2021/05/31 13:26:48;;;;;;;;;;;;;;;;;;5063657;28;19969;-71
2021/05/31 13:29:14;;;;;;;;;;;;;;;;;;5063082;28;19925;-71
2021/05/31 13:31:41;;;;;;;;;;;;;;;;;;5060139;28;19929;-69
2021/05/31 13:34:07;;;;;;;;;;;;;;;;;;5063907;28;20023;-69
2021/05/31 13:36:34;;;;;;;;;;;;;;;;;;5055928;28;19970;-70
2021/05/31 13:39:00;;;;;;;;;;;;;;;;;;5061194;28;19924;-68
2021/05/31 13:41:27;;;;;;;;;;;;;;;;;;5058501;28;20066;-69
2021/05/31 13:43:53;;;;;;;;;;;;;;;;;;5063940;28;19946;-71
2021/05/31 13:46:20;;;;;;;;;;;;;;;;;;5064875;28;19940;-72
2021/05/31 13:48:46;;;;;;;;;;;;;;;;;;5063820;28;19928;-69
2021/05/31 13:51:16;;;;;;;;;;;;;;;;;;5060342;28;20037;-70
2021/05/31 13:53:42;;;;;;;;;;;;;;;;;;5062708;28;19929;-70
2021/05/31 13:56:09;;;;;;;;;;;;;;;;;;5065356;28;20213;-68
2021/05/31 13:58:35;;;;;;;;;;;;;;;;;;5060805;28;19924;-67
2021/05/31 14:01:02;;;;;;;;;;;;;;;;;;5064105;28;19928;-68
2021/05/31 14:03:28;;;;;;;;;;;;;;;;;;5066701;28;19931;-71
2021/05/31 14:05:55;;;;;;;;;;;;;;;;;;5061503;28;20011;-69
2021/05/31 14:08:21;;;;;;;;;;;;;;;;;;5063823;28;20011;-69
2021/05/31 14:10:48;;;;;;;;;;;;;;;;;;5065387;28;20011;-68
2021/05/31 14:13:15;;;;;;;;;;;;;;;;;;5061337;28;19925;-68
2021/05/31 14:15:41;;;;;;;;;;;;;;;;;;5069473;28;19928;-67
2021/05/31 14:18:08;;;;;;;;;;;;;;;;;;5064609;28;19978;-68
2021/05/31 14:20:34;;;;;;;;;;;;;;;;;;5062499;28;19933;-67
2021/05/31 14:23:03;;;;;;;;;;;;;;;;;;5061756;28;19983;-67
2021/05/31 14:25:29;;;;;;;;;;;;;;;;;;5065271;28;20062;-68
2021/05/31 14:27:57;;;;;;;;;;;;;;;;;;5064261;28;20013;-69
2021/05/31 14:30:24;;;;;;;;;;;;;;;;;;5064492;28;19983;-67
2021/05/31 14:32:52;;;;;;;;;;;;;;;;;;5063362;28;19932;-66
2021/05/31 14:35:19;;;;;;;;;;;;;;;;;;5065788;28;20008;-67
2021/05/31 14:37:45;;;;;;;;;;;;;;;;;;5061182;28;19931;-69
2021/05/31 14:40:12;;;;;;;;;;;;;;;;;;5063743;28;19934;-67
2021/05/31 14:42:38;;;;;;;;;;;;;;;;;;5064633;28;20369;-67
2021/05/31 14:45:05;;;;;;;;;;;;;;;;;;5065621;28;19924;-67
2021/05/31 14:47:31;;;;;;;;;;;;;;;;;;5069209;28;19928;-67
2021/05/31 14:49:58;;;;;;;;;;;;;;;;;;5069235;28;19958;-67
2021/05/31 14:52:24;;;;;;;;;;;;;;;;;;5066319;28;19925;-67
2021/05/31 14:54:51;;;;;;;;;;;;;;;;;;5065875;28;20361;-67
2021/05/31 14:57:17;;;;;;;;;;;;;;;;;;5067776;28;19924;-66
2021/05/31 14:59:44;;;;;;;;;;;;;;;;;;5065134;28;19925;-67
2021/05/31 15:02:10;;;;;;;;;;;;;;;;;;5065910;28;19928;-67
2021/05/31 15:04:37;;;;;;;;;;;;;;;;;;5066033;28;20073;-67
2021/05/31 15:07:03;;;;;;;;;;;;;;;;;;5069869;28;19925;-67
2021/05/31 15:09:30;;;;;;;;;;;;;;;;;;5066891;28;19932;-69
2021/05/31 15:11:58;;;;;;;;;;;;;;;;;;5064845;28;20274;-68
2021/05/31 15:14:25;;;;;;;;;;;;;;;;;;5065897;28;20316;-66
2021/05/31 15:16:51;;;;;;;;;;;;;;;;;;5068277;28;20339;-68
2021/05/31 15:19:18;;;;;;;;;;;;;;;;;;5069425;28;19924;-67
2021/05/31 15:21:44;;;;;;;;;;;;;;;;;;5069086;28;20027;-67
2021/05/31 15:24:11;;;;;;;;;;;;;;;;;;5063881;28;20010;-67
2021/05/31 15:26:37;;;;;;;;;;;;;;;;;;5064436;28;19951;-66
2021/05/31 15:29:04;;;;;;;;;;;;;;;;;;5066948;28;19936;-66
2021/05/31 15:31:30;;;;;;;;;;;;;;;;;;5066802;28;19966;-67
2021/05/31 15:33:57;;;;;;;;;;;;;;;;;;5064604;28;19929;-66
2021/05/31 15:36:23;;;;;;;;;;;;;;;;;;5065437;28;20047;-66
2021/05/31 15:38:50;;;;;;;;;;;;;;;;;;5064547;28;19924;-66
2021/05/31 15:41:16;;;;;;;;;;;;;;;;;;5065097;28;19925;-67
2021/05/31 15:43:43;;;;;;;;;;;;;;;;;;5067718;28;19925;-67
2021/05/31 15:46:10;;;;;;;;;;;;;;;;;;5066180;28;19928;-65
2021/05/31 15:48:36;;;;;;;;;;;;;;;;;;5066613;28;20011;-66
2021/05/31 15:51:10;;;;;;;;;;;;;;;;;;5069513;28;19971;-65
2021/05/31 15:53:37;;;;;;;;;;;;;;;;;;5066835;28;19932;-64
2021/05/31 15:56:03;;;;;;;;;;;;;;;;;;5067236;28;20011;-65
2021/05/31 15:58:30;;;;;;;;;;;;;;;;;;5064445;28;19928;-67
2021/05/31 16:00:57;;;;;;;;;;;;;;;;;;5064380;28;19924;-65
2021/05/31 16:03:23;;;;;;;;;;;;;;;;;;5066325;28;19928;-65
2021/05/31 16:05:50;;;;;;;;;;;;;;;;;;5064525;28;19925;-66
2021/05/31 16:08:18;;;;;;;;;;;;;;;;;;5069064;28;21261;-66
2021/05/31 16:10:45;;;;;;;;;;;;;;;;;;5065378;28;20011;-66
2021/05/31 16:13:12;;;;;;;;;;;;;;;;;;5064366;28;19938;-66
2021/05/31 16:15:39;;;;;;;;;;;;;;;;;;5065803;28;19971;-67
2021/05/31 16:18:05;;;;;;;;;;;;;;;;;;5063282;28;19924;-67
2021/05/31 16:20:32;;;;;;;;;;;;;;;;;;5063206;28;20061;-66
2021/05/31 16:23:05;;;;;;;;;;;;;;;;;;5065079;28;20498;-67
2021/05/31 16:25:31;;;;;;;;;;;;;;;;;;5063772;28;19928;-66
2021/05/31 16:27:58;;;;;;;;;;;;;;;;;;5065603;28;20027;-67
2021/05/31 16:30:24;;;;;;;;;;;;;;;;;;5065535;28;19948;-67
2021/05/31 16:32:51;;;;;;;;;;;;;;;;;;5068967;28;19928;-67
2021/05/31 16:35:17;;;;;;;;;;;;;;;;;;5062169;28;20404;-67
2021/05/31 16:37:44;;;;;;;;;;;;;;;;;;5065787;28;19924;-66
2021/05/31 16:40:10;;;;;;;;;;;;;;;;;;5063551;28;20019;-67
2021/05/31 16:42:37;;;;;;;;;;;;;;;;;;5063358;28;20451;-67
2021/05/31 16:45:03;;;;;;;;;;;;;;;;;;5066004;28;19931;-66
2021/05/31 16:47:30;;;;;;;;;;;;;;;;;;5063067;28;19985;-67
2021/05/31 16:49:56;;;;;;;;;;;;;;;;;;5063986;28;19924;-67
2021/05/31 16:52:23;;;;;;;;;;;;;;;;;;5065441;28;19931;-67
2021/05/31 16:54:49;;;;;;;;;;;;;;;;;;5063040;28;20384;-67